createdAt,value
2018-09-26T00:00:50.668Z,0.00
2018-09-26T00:01:50.656Z,0.00
2018-09-26T00:02:50.642Z,0.00
2018-09-26T00:03:50.629Z,0.00
2018-09-26T00:04:50.615Z,0.00
2018-09-26T00:05:50.601Z,0.00
2018-09-26T00:06:50.588Z,0.00
2018-09-26T00:07:50.578Z,0.00
2018-09-26T00:08:50.561Z,0.00
2018-09-26T00:09:50.548Z,0.00
2018-09-26T00:10:50.535Z,0.00
2018-09-26T00:11:50.522Z,0.00
2018-09-26T00:12:50.508Z,0.00
2018-09-26T00:13:50.495Z,0.00
2018-09-26T00:14:50.482Z,0.00
2018-09-26T00:15:50.469Z,0.00
2018-09-26T00:16:50.456Z,0.00
2018-09-26T00:17:50.442Z,0.00
2018-09-26T00:18:50.429Z,0.00
2018-09-26T00:19:50.415Z,0.00
2018-09-26T00:20:50.402Z,0.00
2018-09-26T00:21:50.391Z,0.00
2018-09-26T00:22:50.375Z,0.00
2018-09-26T00:23:50.363Z,0.00
2018-09-26T00:24:50.352Z,0.00
2018-09-26T00:25:50.337Z,0.00
2018-09-26T00:26:50.323Z,0.00
2018-09-26T00:27:50.310Z,0.00
2018-09-26T00:28:50.298Z,0.00
2018-09-26T00:29:50.283Z,0.00
2018-09-26T00:30:50.272Z,0.00
2018-09-26T00:31:50.255Z,0.00
2018-09-26T00:32:50.242Z,0.00
2018-09-26T00:33:50.230Z,0.00
2018-09-26T00:34:50.216Z,0.00
2018-09-26T00:35:50.281Z,0.00
2018-09-26T00:36:50.188Z,0.00
2018-09-26T00:37:50.177Z,0.00
2018-09-26T00:38:50.189Z,0.00
2018-09-26T00:39:50.152Z,0.00
2018-09-26T00:40:50.138Z,0.00
2018-09-26T00:41:50.123Z,0.00
2018-09-26T00:42:50.110Z,0.00
2018-09-26T00:43:50.099Z,0.00
2018-09-26T00:44:50.083Z,0.00
2018-09-26T00:45:50.069Z,0.00
2018-09-26T00:46:50.058Z,0.00
2018-09-26T00:47:50.042Z,0.00
2018-09-26T00:48:50.029Z,0.00
2018-09-26T00:49:50.016Z,0.00
2018-09-26T00:50:50.002Z,0.00
2018-09-26T00:51:49.988Z,0.00
2018-09-26T00:52:49.975Z,0.00
2018-09-26T00:53:49.962Z,0.00
2018-09-26T00:54:49.947Z,0.00
2018-09-26T00:55:49.936Z,0.00
2018-09-26T00:56:49.924Z,0.00
2018-09-26T00:57:49.909Z,0.00
2018-09-26T00:58:49.892Z,0.00
2018-09-26T00:59:49.879Z,0.00
2018-09-26T01:00:49.868Z,0.00
2018-09-26T01:01:49.853Z,0.00
2018-09-26T01:02:49.839Z,0.00
2018-09-26T01:03:49.826Z,0.00
2018-09-26T01:04:49.812Z,0.00
2018-09-26T01:05:49.799Z,0.00
2018-09-26T01:06:49.787Z,0.00
2018-09-26T01:07:49.771Z,0.00
2018-09-26T01:08:49.756Z,0.00
2018-09-26T01:09:49.743Z,0.00
2018-09-26T01:10:49.733Z,0.00
2018-09-26T01:11:49.717Z,0.00
2018-09-26T01:12:49.701Z,0.00
2018-09-26T01:13:49.688Z,0.00
2018-09-26T01:14:49.674Z,0.00
2018-09-26T01:15:49.662Z,0.00
2018-09-26T01:16:49.649Z,0.00
2018-09-26T01:17:49.634Z,0.00
2018-09-26T01:18:49.621Z,0.00
2018-09-26T01:19:49.609Z,0.00
2018-09-26T01:20:49.592Z,0.00
2018-09-26T01:21:49.578Z,0.00
2018-09-26T01:22:49.565Z,0.00
2018-09-26T01:23:49.551Z,0.00
2018-09-26T01:24:49.537Z,0.00
2018-09-26T01:25:49.523Z,0.00
2018-09-26T01:26:49.509Z,0.00
2018-09-26T01:27:49.496Z,0.00
2018-09-26T01:28:49.485Z,0.00
2018-09-26T01:29:49.467Z,0.00
2018-09-26T01:30:49.453Z,0.00
2018-09-26T01:31:49.440Z,0.00
2018-09-26T01:32:49.425Z,0.00
2018-09-26T01:33:49.411Z,0.00
2018-09-26T01:34:49.398Z,0.00
2018-09-26T01:35:49.384Z,0.00
2018-09-26T01:36:49.369Z,0.00
2018-09-26T01:37:49.355Z,0.00
2018-09-26T01:38:49.342Z,0.00
2018-09-26T01:39:49.328Z,0.00
2018-09-26T01:40:49.313Z,0.00
2018-09-26T01:41:49.299Z,0.00
2018-09-26T01:42:49.285Z,0.00
2018-09-26T01:43:49.273Z,0.00
2018-09-26T01:44:49.257Z,0.00
2018-09-26T01:45:49.245Z,0.00
2018-09-26T01:46:49.230Z,0.00
2018-09-26T01:47:49.216Z,0.00
2018-09-26T01:48:49.201Z,0.00
2018-09-26T01:49:49.187Z,0.00
2018-09-26T01:50:49.174Z,0.00
2018-09-26T01:51:49.159Z,0.00
2018-09-26T01:52:49.146Z,0.00
2018-09-26T01:53:49.134Z,0.00
2018-09-26T01:54:49.117Z,0.00
2018-09-26T01:55:49.104Z,0.00
2018-09-26T01:56:49.088Z,0.00
2018-09-26T01:57:49.076Z,0.00
2018-09-26T01:58:49.060Z,0.00
2018-09-26T01:59:49.047Z,0.00
2018-09-26T02:00:49.034Z,0.00
2018-09-26T02:01:49.019Z,0.00
2018-09-26T02:02:49.006Z,0.00
2018-09-26T02:03:48.992Z,0.00
2018-09-26T02:04:48.975Z,0.00
2018-09-26T02:05:48.963Z,0.00
2018-09-26T02:06:48.947Z,0.00
2018-09-26T02:07:48.936Z,0.00
2018-09-26T02:08:48.921Z,0.00
2018-09-26T02:09:48.907Z,0.00
2018-09-26T02:10:48.891Z,0.00
2018-09-26T02:11:48.879Z,0.00
2018-09-26T02:12:48.865Z,0.00
2018-09-26T02:13:48.850Z,0.00
2018-09-26T02:14:48.837Z,0.00
2018-09-26T02:15:48.825Z,0.00
2018-09-26T02:16:48.808Z,0.00
2018-09-26T02:17:48.796Z,0.00
2018-09-26T02:18:48.781Z,0.00
2018-09-26T02:19:48.767Z,0.00
2018-09-26T02:20:48.753Z,0.00
2018-09-26T02:21:48.741Z,0.00
2018-09-26T02:22:48.726Z,0.00
2018-09-26T02:23:48.773Z,0.00
2018-09-26T02:24:48.698Z,0.00
2018-09-26T02:25:48.685Z,0.00
2018-09-26T02:26:48.671Z,0.00
2018-09-26T02:27:48.658Z,0.00
2018-09-26T02:28:48.645Z,0.00
2018-09-26T02:29:48.629Z,0.00
2018-09-26T02:30:48.615Z,0.00
2018-09-26T02:31:48.629Z,0.00
2018-09-26T02:32:48.588Z,0.00
2018-09-26T02:33:48.573Z,0.00
2018-09-26T02:34:48.560Z,0.00
2018-09-26T02:35:48.548Z,0.00
2018-09-26T02:36:48.533Z,0.00
2018-09-26T02:37:48.518Z,0.00
2018-09-26T02:38:48.506Z,0.00
2018-09-26T02:39:48.491Z,0.00
2018-09-26T02:40:48.477Z,0.00
2018-09-26T02:41:48.463Z,0.00
2018-09-26T02:42:48.450Z,0.00
2018-09-26T02:43:48.436Z,0.00
2018-09-26T02:44:48.423Z,0.00
2018-09-26T02:45:48.410Z,0.00
2018-09-26T02:46:48.397Z,0.00
2018-09-26T02:47:48.380Z,0.00
2018-09-26T02:48:48.368Z,0.00
2018-09-26T02:49:48.358Z,0.00
2018-09-26T02:50:48.339Z,0.00
2018-09-26T02:51:48.324Z,0.00
2018-09-26T02:52:48.311Z,0.00
2018-09-26T02:53:48.296Z,0.00
2018-09-26T02:54:48.283Z,0.00
2018-09-26T02:55:48.329Z,0.00
2018-09-26T02:56:48.256Z,0.00
2018-09-26T02:57:48.242Z,0.00
2018-09-26T02:58:48.227Z,0.00
2018-09-26T02:59:48.213Z,0.00
2018-09-26T03:00:48.199Z,0.00
2018-09-26T03:01:48.186Z,0.00
2018-09-26T03:02:48.173Z,0.00
2018-09-26T03:03:48.158Z,0.00
2018-09-26T03:04:48.142Z,0.00
2018-09-26T03:05:48.131Z,0.00
2018-09-26T03:06:48.115Z,0.00
2018-09-26T03:07:48.103Z,0.00
2018-09-26T03:08:48.090Z,0.00
2018-09-26T03:09:48.074Z,0.00
2018-09-26T03:10:48.094Z,0.00
2018-09-26T03:11:48.048Z,0.00
2018-09-26T03:12:48.033Z,0.00
2018-09-26T03:13:48.019Z,0.00
2018-09-26T03:14:48.005Z,0.00
2018-09-26T03:15:47.992Z,0.00
2018-09-26T03:16:47.976Z,0.00
2018-09-26T03:17:48.063Z,0.00
2018-09-26T03:18:47.950Z,0.00
2018-09-26T03:19:47.937Z,0.00
2018-09-26T03:20:47.924Z,0.00
2018-09-26T03:21:47.907Z,0.00
2018-09-26T03:22:47.897Z,0.00
2018-09-26T03:23:47.882Z,0.00
2018-09-26T03:24:47.867Z,0.00
2018-09-26T03:25:47.853Z,0.00
2018-09-26T03:26:47.838Z,0.00
2018-09-26T03:27:47.826Z,0.00
2018-09-26T03:28:47.811Z,0.00
2018-09-26T03:29:47.796Z,0.00
2018-09-26T03:30:47.783Z,0.00
2018-09-26T03:31:47.769Z,0.00
2018-09-26T03:32:47.755Z,0.00
2018-09-26T03:33:47.820Z,0.00
2018-09-26T03:34:47.726Z,0.00
2018-09-26T03:35:47.712Z,0.00
2018-09-26T03:36:47.699Z,0.00
2018-09-26T03:37:47.685Z,0.00
2018-09-26T03:38:47.672Z,0.00
2018-09-26T03:39:47.656Z,0.00
2018-09-26T03:40:47.642Z,0.00
2018-09-26T03:41:47.630Z,0.00
2018-09-26T03:42:47.617Z,0.00
2018-09-26T03:43:47.803Z,0.00
2018-09-26T03:44:47.586Z,0.00
2018-09-26T03:45:47.572Z,0.00
2018-09-26T03:46:47.558Z,0.00
2018-09-26T03:47:47.545Z,0.00
2018-09-26T03:48:47.531Z,0.00
2018-09-26T03:49:47.521Z,0.00
2018-09-26T03:50:47.507Z,0.00
2018-09-26T03:51:47.489Z,0.00
2018-09-26T03:52:47.484Z,0.00
2018-09-26T03:53:47.463Z,0.00
2018-09-26T03:54:47.446Z,0.00
2018-09-26T03:55:47.433Z,0.00
2018-09-26T03:56:47.415Z,0.00
2018-09-26T03:57:47.403Z,0.00
2018-09-26T03:58:47.388Z,0.00
2018-09-26T03:59:47.376Z,0.00
2018-09-26T04:00:47.359Z,0.00
2018-09-26T04:01:47.345Z,0.00
2018-09-26T04:02:47.332Z,0.00
2018-09-26T04:03:47.321Z,0.00
2018-09-26T04:04:47.336Z,0.00
2018-09-26T04:05:47.288Z,0.00
2018-09-26T04:06:47.275Z,0.00
2018-09-26T04:07:47.260Z,0.00
2018-09-26T04:08:47.245Z,0.00
2018-09-26T04:09:47.231Z,0.00
2018-09-26T04:10:47.217Z,0.00
2018-09-26T04:11:47.203Z,0.00
2018-09-26T04:12:47.265Z,0.00
2018-09-26T04:13:47.174Z,0.00
2018-09-26T04:14:47.160Z,0.00
2018-09-26T04:15:47.209Z,0.00
2018-09-26T04:16:47.133Z,0.00
2018-09-26T04:17:47.118Z,0.00
2018-09-26T04:18:47.106Z,0.00
2018-09-26T04:19:47.091Z,0.00
2018-09-26T04:20:47.076Z,0.00
2018-09-26T04:21:47.064Z,0.00
2018-09-26T04:22:47.047Z,0.00
2018-09-26T04:23:47.034Z,0.00
2018-09-26T04:24:47.023Z,0.00
2018-09-26T04:25:47.008Z,0.00
2018-09-26T04:26:47.129Z,0.00
2018-09-26T04:27:47.049Z,0.00
2018-09-26T04:28:46.962Z,0.00
2018-09-26T04:29:46.947Z,0.00
2018-09-26T04:30:46.937Z,0.00
2018-09-26T04:31:46.919Z,0.00
2018-09-26T04:32:47.163Z,0.00
2018-09-26T04:33:46.898Z,0.00
2018-09-26T04:34:46.877Z,0.00
2018-09-26T04:35:46.863Z,0.00
2018-09-26T04:36:46.848Z,0.00
2018-09-26T04:37:46.834Z,0.00
2018-09-26T04:38:46.960Z,0.00
2018-09-26T04:39:46.806Z,0.00
2018-09-26T04:40:46.791Z,0.00
2018-09-26T04:41:46.779Z,0.00
2018-09-26T04:42:46.763Z,0.00
2018-09-26T04:43:46.750Z,0.00
2018-09-26T04:44:46.735Z,0.00
2018-09-26T04:45:46.720Z,0.00
2018-09-26T04:46:46.709Z,0.00
2018-09-26T04:47:46.694Z,0.00
2018-09-26T04:48:46.678Z,0.00
2018-09-26T04:49:46.664Z,0.00
2018-09-26T04:50:46.673Z,0.00
2018-09-26T04:51:46.636Z,0.00
2018-09-26T04:52:46.621Z,0.00
2018-09-26T04:53:46.607Z,0.00
2018-09-26T04:54:46.592Z,0.00
2018-09-26T04:55:46.579Z,0.00
2018-09-26T04:56:46.566Z,0.00
2018-09-26T04:57:46.582Z,0.00
2018-09-26T04:58:46.536Z,0.00
2018-09-26T04:59:46.522Z,0.00
2018-09-26T05:00:46.506Z,0.00
2018-09-26T05:01:46.495Z,0.00
2018-09-26T05:02:46.480Z,0.00
2018-09-26T05:03:46.466Z,0.00
2018-09-26T05:04:46.451Z,0.00
2018-09-26T05:05:46.436Z,0.00
2018-09-26T05:06:46.423Z,0.00
2018-09-26T05:07:46.408Z,0.00
2018-09-26T05:08:46.394Z,0.00
2018-09-26T05:09:46.380Z,0.00
2018-09-26T05:10:46.365Z,0.00
2018-09-26T05:11:46.352Z,0.00
2018-09-26T05:12:46.337Z,0.00
2018-09-26T05:13:46.323Z,0.00
2018-09-26T05:14:46.339Z,0.00
2018-09-26T05:15:46.293Z,0.00
2018-09-26T05:16:46.284Z,0.00
2018-09-26T05:17:46.266Z,0.00
2018-09-26T05:18:46.252Z,0.00
2018-09-26T05:19:46.238Z,0.00
2018-09-26T05:20:46.221Z,0.00
2018-09-26T05:21:46.211Z,5.63
2018-09-26T05:22:46.260Z,5.63
2018-09-26T05:23:46.181Z,5.63
2018-09-26T05:24:46.166Z,5.63
2018-09-26T05:25:46.151Z,5.63
2018-09-26T05:26:46.136Z,5.63
2018-09-26T05:27:46.124Z,5.63
2018-09-26T05:28:46.109Z,5.63
2018-09-26T05:29:46.093Z,5.63
2018-09-26T05:30:46.080Z,5.63
2018-09-26T05:31:46.066Z,5.63
2018-09-26T05:32:46.052Z,5.63
2018-09-26T05:33:46.039Z,11.25
2018-09-26T05:34:46.023Z,11.25
2018-09-26T05:35:46.009Z,11.25
2018-09-26T05:36:45.993Z,11.25
2018-09-26T05:37:45.980Z,11.25
2018-09-26T05:38:45.965Z,11.25
2018-09-26T05:39:45.951Z,11.25
2018-09-26T05:40:45.935Z,11.25
2018-09-26T05:41:45.949Z,16.88
2018-09-26T05:42:45.910Z,16.88
2018-09-26T05:43:45.894Z,16.88
2018-09-26T05:44:45.878Z,16.88
2018-09-26T05:45:45.865Z,16.88
2018-09-26T05:46:45.850Z,16.88
2018-09-26T05:47:45.836Z,16.88
2018-09-26T05:48:45.821Z,16.88
2018-09-26T05:49:45.807Z,16.88
2018-09-26T05:50:45.792Z,16.88
2018-09-26T05:51:45.778Z,22.50
2018-09-26T05:52:45.763Z,22.50
2018-09-26T05:53:45.749Z,22.50
2018-09-26T05:54:45.734Z,22.50
2018-09-26T05:55:45.721Z,22.50
2018-09-26T05:56:45.708Z,22.50
2018-09-26T05:57:45.691Z,22.50
2018-09-26T05:58:45.677Z,22.50
2018-09-26T05:59:45.754Z,22.50
2018-09-26T06:00:45.648Z,22.50
2018-09-26T06:01:45.635Z,22.50
2018-09-26T06:02:45.624Z,28.13
2018-09-26T06:03:45.607Z,28.13
2018-09-26T06:04:45.591Z,28.13
2018-09-26T06:05:45.578Z,28.13
2018-09-26T06:06:45.564Z,28.13
2018-09-26T06:07:45.549Z,28.13
2018-09-26T06:08:45.534Z,28.13
2018-09-26T06:09:45.521Z,28.13
2018-09-26T06:10:45.507Z,28.13
2018-09-26T06:11:45.493Z,28.13
2018-09-26T06:12:45.505Z,28.13
2018-09-26T06:13:45.464Z,28.13
2018-09-26T06:14:45.450Z,33.75
2018-09-26T06:15:45.436Z,33.75
2018-09-26T06:16:45.420Z,33.75
2018-09-26T06:17:45.406Z,33.75
2018-09-26T06:18:45.395Z,33.75
2018-09-26T06:19:45.377Z,33.75
2018-09-26T06:20:45.363Z,33.75
2018-09-26T06:21:45.349Z,33.75
2018-09-26T06:22:45.334Z,33.75
2018-09-26T06:23:45.320Z,33.75
2018-09-26T06:24:45.382Z,39.38
2018-09-26T06:25:45.294Z,39.38
2018-09-26T06:26:45.280Z,45.00
2018-09-26T06:27:45.264Z,50.63
2018-09-26T06:28:45.249Z,50.63
2018-09-26T06:29:45.236Z,50.63
2018-09-26T06:30:45.220Z,50.63
2018-09-26T06:31:45.208Z,56.25
2018-09-26T06:32:45.196Z,56.25
2018-09-26T06:33:45.179Z,56.25
2018-09-26T06:34:45.165Z,56.25
2018-09-26T06:35:45.151Z,56.25
2018-09-26T06:36:45.137Z,56.25
2018-09-26T06:37:45.123Z,56.25
2018-09-26T06:38:45.109Z,56.25
2018-09-26T06:39:45.095Z,56.25
2018-09-26T06:40:45.081Z,56.25
2018-09-26T06:41:45.070Z,61.88
2018-09-26T06:42:45.053Z,61.88
2018-09-26T06:43:45.040Z,61.88
2018-09-26T06:44:45.026Z,61.88
2018-09-26T06:45:45.012Z,61.88
2018-09-26T06:46:44.999Z,61.88
2018-09-26T06:47:44.985Z,61.88
2018-09-26T06:48:44.972Z,61.88
2018-09-26T06:49:44.958Z,61.88
2018-09-26T06:50:44.946Z,61.88
2018-09-26T06:51:44.932Z,61.88
2018-09-26T06:52:44.918Z,61.88
2018-09-26T06:53:44.905Z,61.88
2018-09-26T06:54:44.892Z,61.88
2018-09-26T06:55:44.879Z,67.50
2018-09-26T06:56:44.864Z,67.50
2018-09-26T06:57:44.854Z,67.50
2018-09-26T06:58:44.841Z,67.50
2018-09-26T06:59:44.830Z,67.50
2018-09-26T07:00:44.814Z,67.50
2018-09-26T07:01:44.802Z,67.50
2018-09-26T07:02:44.793Z,67.50
2018-09-26T07:03:44.776Z,67.50
2018-09-26T07:04:44.762Z,67.50
2018-09-26T07:05:44.750Z,67.50
2018-09-26T07:06:44.741Z,67.50
2018-09-26T07:07:44.724Z,67.50
2018-09-26T07:08:44.710Z,67.50
2018-09-26T07:09:44.698Z,67.50
2018-09-26T07:10:44.686Z,67.50
2018-09-26T07:11:44.673Z,67.50
2018-09-26T07:12:44.660Z,67.50
2018-09-26T07:13:44.647Z,67.50
2018-09-26T07:14:44.635Z,67.50
2018-09-26T07:15:44.622Z,73.13
2018-09-26T07:16:44.611Z,73.13
2018-09-26T07:17:44.597Z,73.13
2018-09-26T07:18:44.585Z,73.13
2018-09-26T07:19:44.572Z,73.13
2018-09-26T07:20:44.561Z,73.13
2018-09-26T07:21:44.547Z,73.13
2018-09-26T07:22:44.535Z,73.13
2018-09-26T07:23:44.523Z,73.13
2018-09-26T07:24:44.510Z,73.13
2018-09-26T07:25:44.498Z,73.13
2018-09-26T07:26:44.486Z,73.13
2018-09-26T07:27:44.474Z,73.13
2018-09-26T07:28:44.462Z,73.13
2018-09-26T07:29:44.449Z,73.13
2018-09-26T07:30:44.437Z,73.13
2018-09-26T07:31:44.428Z,73.13
2018-09-26T07:32:44.413Z,73.13
2018-09-26T07:33:44.402Z,73.13
2018-09-26T07:34:44.390Z,73.13
2018-09-26T07:35:44.376Z,73.13
2018-09-26T07:36:44.365Z,73.13
2018-09-26T07:37:44.352Z,73.13
2018-09-26T07:38:44.342Z,73.13
2018-09-26T07:39:44.330Z,73.13
2018-09-26T07:40:44.316Z,73.13
2018-09-26T07:41:44.306Z,73.13
2018-09-26T07:42:44.296Z,73.13
2018-09-26T07:43:44.283Z,73.13
2018-09-26T07:44:44.270Z,73.13
2018-09-26T07:45:44.309Z,67.50
2018-09-26T07:46:44.250Z,73.13
2018-09-26T07:47:44.238Z,73.13
2018-09-26T07:48:44.224Z,73.13
2018-09-26T07:49:44.215Z,73.13
2018-09-26T07:50:44.200Z,73.13
2018-09-26T07:51:44.190Z,73.13
2018-09-26T07:52:44.178Z,73.13
2018-09-26T07:53:44.165Z,73.13
2018-09-26T07:54:44.154Z,73.13
2018-09-26T07:55:44.144Z,73.13
2018-09-26T07:56:44.131Z,73.13
2018-09-26T07:57:44.119Z,73.13
2018-09-26T07:58:44.109Z,73.13
2018-09-26T07:59:44.097Z,73.13
2018-09-26T08:00:44.085Z,73.13
2018-09-26T08:01:44.074Z,73.13
2018-09-26T08:02:44.063Z,73.13
2018-09-26T08:03:44.054Z,73.13
2018-09-26T08:04:44.041Z,73.13
2018-09-26T08:05:44.030Z,73.13
2018-09-26T08:06:44.018Z,73.13
2018-09-26T08:07:44.008Z,73.13
2018-09-26T08:08:43.996Z,73.13
2018-09-26T08:09:43.984Z,73.13
2018-09-26T08:10:43.975Z,73.13
2018-09-26T08:11:44.009Z,73.13
2018-09-26T08:12:43.948Z,73.13
2018-09-26T08:13:43.942Z,73.13
2018-09-26T08:14:43.927Z,73.13
2018-09-26T08:15:43.915Z,73.13
2018-09-26T08:16:43.905Z,73.13
2018-09-26T08:17:43.894Z,73.13
2018-09-26T08:18:43.984Z,73.13
2018-09-26T08:19:43.876Z,73.13
2018-09-26T08:20:43.861Z,73.13
2018-09-26T08:21:43.849Z,73.13
2018-09-26T08:22:43.839Z,73.13
2018-09-26T08:23:43.906Z,73.13
2018-09-26T08:24:43.817Z,73.13
2018-09-26T08:25:43.807Z,73.13
2018-09-26T08:26:43.798Z,73.13
2018-09-26T08:27:43.786Z,73.13
2018-09-26T08:28:43.774Z,73.13
2018-09-26T08:29:43.789Z,73.13
2018-09-26T08:30:43.754Z,73.13
2018-09-26T08:31:43.743Z,73.13
2018-09-26T08:32:43.732Z,73.13
2018-09-26T08:33:43.722Z,73.13
2018-09-26T08:34:43.720Z,78.75
2018-09-26T08:35:43.701Z,78.75
2018-09-26T08:36:43.689Z,78.75
2018-09-26T08:37:43.679Z,78.75
2018-09-26T08:38:43.669Z,78.75
2018-09-26T08:39:43.659Z,78.75
2018-09-26T08:40:43.647Z,78.75
2018-09-26T08:41:43.638Z,78.75
2018-09-26T08:42:43.627Z,78.75
2018-09-26T08:43:43.673Z,78.75
2018-09-26T08:44:43.605Z,78.75
2018-09-26T08:45:43.597Z,78.75
2018-09-26T08:46:43.587Z,78.75
2018-09-26T08:47:43.575Z,78.75
2018-09-26T08:48:43.564Z,78.75
2018-09-26T08:49:43.555Z,78.75
2018-09-26T08:50:43.546Z,78.75
2018-09-26T08:51:43.536Z,78.75
2018-09-26T08:52:43.525Z,78.75
2018-09-26T08:53:43.537Z,78.75
2018-09-26T08:54:43.509Z,78.75
2018-09-26T08:55:43.494Z,78.75
2018-09-26T08:56:43.483Z,78.75
2018-09-26T08:57:43.474Z,78.75
2018-09-26T08:58:43.465Z,78.75
2018-09-26T08:59:43.512Z,78.75
2018-09-26T09:00:43.444Z,78.75
2018-09-26T09:01:43.435Z,78.75
2018-09-26T09:02:43.425Z,78.75
2018-09-26T09:03:43.422Z,84.38
2018-09-26T09:04:43.404Z,84.38
2018-09-26T09:05:43.396Z,84.38
2018-09-26T09:06:43.387Z,84.38
2018-09-26T09:07:43.376Z,84.38
2018-09-26T09:08:43.366Z,84.38
2018-09-26T09:09:43.360Z,84.38
2018-09-26T09:10:43.348Z,84.38
2018-09-26T09:11:43.444Z,84.38
2018-09-26T09:12:43.342Z,84.38
2018-09-26T09:13:43.318Z,84.38
2018-09-26T09:14:43.527Z,84.38
2018-09-26T09:15:43.300Z,84.38
2018-09-26T09:16:43.290Z,84.38
2018-09-26T09:17:43.332Z,84.38
2018-09-26T09:18:43.271Z,84.38
2018-09-26T09:19:43.262Z,84.38
2018-09-26T09:20:43.250Z,84.38
2018-09-26T09:21:43.243Z,84.38
2018-09-26T09:22:43.232Z,84.38
2018-09-26T09:23:43.224Z,84.38
2018-09-26T09:24:43.213Z,84.38
2018-09-26T09:25:43.205Z,84.38
2018-09-26T09:26:43.195Z,84.38
2018-09-26T09:27:43.284Z,84.38
2018-09-26T09:28:43.176Z,84.38
2018-09-26T09:29:43.167Z,84.38
2018-09-26T09:30:43.157Z,84.38
2018-09-26T09:31:43.148Z,84.38
2018-09-26T09:32:43.141Z,84.38
2018-09-26T09:33:43.129Z,84.38
2018-09-26T09:34:43.119Z,84.38
2018-09-26T09:35:43.111Z,84.38
2018-09-26T09:36:43.100Z,84.38
2018-09-26T09:37:43.091Z,84.38
2018-09-26T09:38:43.082Z,84.38
2018-09-26T09:39:43.074Z,84.38
2018-09-26T09:40:43.063Z,84.38
2018-09-26T09:41:43.054Z,84.38
2018-09-26T09:42:43.045Z,84.38
2018-09-26T09:43:43.037Z,84.38
2018-09-26T09:44:43.027Z,84.38
2018-09-26T09:45:43.018Z,84.38
2018-09-26T09:46:43.010Z,84.38
2018-09-26T09:47:43.001Z,84.38
2018-09-26T09:48:42.991Z,84.38
2018-09-26T09:49:42.981Z,84.38
2018-09-26T09:50:42.973Z,84.38
2018-09-26T09:51:42.995Z,90.00
2018-09-26T09:52:42.954Z,90.00
2018-09-26T09:53:42.948Z,90.00
2018-09-26T09:54:42.937Z,90.00
2018-09-26T09:55:42.929Z,90.00
2018-09-26T09:56:42.918Z,90.00
2018-09-26T09:57:42.910Z,90.00
2018-09-26T09:58:42.901Z,90.00
2018-09-26T09:59:42.893Z,90.00
2018-09-26T10:00:42.888Z,90.00
2018-09-26T10:01:42.875Z,90.00
2018-09-26T10:02:42.907Z,90.00
2018-09-26T10:03:42.863Z,90.00
2018-09-26T10:04:42.848Z,90.00
2018-09-26T10:05:42.840Z,90.00
2018-09-26T10:06:42.832Z,90.00
2018-09-26T10:07:42.824Z,90.00
2018-09-26T10:08:42.877Z,90.00
2018-09-26T10:09:42.806Z,95.63
2018-09-26T10:10:42.798Z,95.63
2018-09-26T10:11:42.790Z,95.63
2018-09-26T10:12:42.779Z,95.63
2018-09-26T10:13:42.771Z,95.63
2018-09-26T10:14:42.764Z,95.63
2018-09-26T10:15:42.757Z,95.63
2018-09-26T10:16:42.746Z,95.63
2018-09-26T10:17:42.814Z,95.63
2018-09-26T10:18:42.734Z,95.63
2018-09-26T10:19:42.723Z,95.63
2018-09-26T10:20:42.715Z,95.63
2018-09-26T10:21:42.706Z,95.63
2018-09-26T10:22:42.698Z,95.63
2018-09-26T10:23:42.691Z,95.63
2018-09-26T10:24:42.681Z,101.25
2018-09-26T10:25:42.674Z,106.88
2018-09-26T10:26:42.666Z,101.25
2018-09-26T10:27:42.658Z,101.25
2018-09-26T10:28:42.649Z,101.25
2018-09-26T10:29:42.641Z,101.25
2018-09-26T10:30:42.634Z,101.25
2018-09-26T10:31:42.626Z,101.25
2018-09-26T10:32:42.617Z,101.25
2018-09-26T10:33:42.609Z,101.25
2018-09-26T10:34:42.652Z,101.25
2018-09-26T10:35:42.594Z,101.25
2018-09-26T10:36:42.586Z,101.25
2018-09-26T10:37:42.579Z,101.25
2018-09-26T10:38:42.571Z,101.25
2018-09-26T10:39:42.564Z,101.25
2018-09-26T10:40:42.590Z,101.25
2018-09-26T10:41:42.548Z,101.25
2018-09-26T10:42:42.541Z,101.25
2018-09-26T10:43:42.532Z,101.25
2018-09-26T10:44:42.525Z,101.25
2018-09-26T10:45:42.516Z,101.25
2018-09-26T10:46:42.607Z,95.63
2018-09-26T10:47:42.503Z,95.63
2018-09-26T10:48:42.496Z,90.00
2018-09-26T10:49:42.487Z,78.75
2018-09-26T10:50:42.479Z,84.38
2018-09-26T10:51:42.472Z,95.63
2018-09-26T10:52:42.464Z,95.63
2018-09-26T10:53:42.456Z,95.63
2018-09-26T10:54:42.450Z,95.63
2018-09-26T10:55:42.442Z,95.63
2018-09-26T10:56:42.500Z,95.63
2018-09-26T10:57:42.428Z,95.63
2018-09-26T10:58:42.420Z,84.38
2018-09-26T10:59:42.414Z,90.00
2018-09-26T11:00:42.405Z,90.00
2018-09-26T11:01:42.398Z,90.00
2018-09-26T11:02:42.499Z,95.63
2018-09-26T11:03:42.383Z,90.00
2018-09-26T11:04:42.375Z,90.00
2018-09-26T11:05:42.368Z,90.00
2018-09-26T11:06:42.362Z,90.00
2018-09-26T11:07:42.354Z,90.00
2018-09-26T11:08:42.346Z,90.00
2018-09-26T11:09:42.339Z,95.63
2018-09-26T11:10:42.336Z,95.63
2018-09-26T11:11:42.325Z,95.63
2018-09-26T11:12:42.390Z,95.63
2018-09-26T11:13:42.311Z,95.63
2018-09-26T11:14:42.303Z,95.63
2018-09-26T11:15:42.296Z,101.25
2018-09-26T11:16:42.288Z,101.25
2018-09-26T11:17:42.281Z,101.25
2018-09-26T11:18:42.301Z,95.63
2018-09-26T11:19:42.268Z,95.63
2018-09-26T11:20:42.264Z,95.63
2018-09-26T11:21:42.253Z,101.25
2018-09-26T11:22:42.247Z,95.63
2018-09-26T11:23:42.240Z,95.63
2018-09-26T11:24:42.231Z,95.63
2018-09-26T11:25:42.234Z,95.63
2018-09-26T11:26:42.280Z,95.63
2018-09-26T11:27:42.212Z,95.63
2018-09-26T11:28:42.205Z,95.63
2018-09-26T11:29:42.199Z,95.63
2018-09-26T11:30:42.192Z,95.63
2018-09-26T11:31:42.185Z,95.63
2018-09-26T11:32:42.177Z,95.63
2018-09-26T11:33:42.250Z,95.63
2018-09-26T11:34:42.165Z,95.63
2018-09-26T11:35:42.258Z,95.63
2018-09-26T11:36:42.151Z,90.00
2018-09-26T11:37:42.146Z,95.63
2018-09-26T11:38:42.138Z,95.63
2018-09-26T11:39:42.132Z,95.63
2018-09-26T11:40:42.124Z,95.63
2018-09-26T11:41:42.117Z,95.63
2018-09-26T11:42:42.111Z,95.63
2018-09-26T11:43:42.105Z,95.63
2018-09-26T11:44:42.174Z,95.63
2018-09-26T11:45:42.091Z,95.63
2018-09-26T11:46:42.085Z,95.63
2018-09-26T11:47:42.082Z,95.63
2018-09-26T11:48:42.072Z,95.63
2018-09-26T11:49:42.066Z,95.63
2018-09-26T11:50:42.060Z,95.63
2018-09-26T11:51:42.056Z,101.25
2018-09-26T11:52:42.046Z,101.25
2018-09-26T11:53:42.040Z,95.63
2018-09-26T11:54:42.134Z,95.63
2018-09-26T11:55:42.028Z,101.25
2018-09-26T11:56:42.021Z,101.25
2018-09-26T11:57:42.015Z,101.25
2018-09-26T11:58:42.011Z,101.25
2018-09-26T11:59:42.003Z,95.63
2018-09-26T12:00:41.995Z,90.00
2018-09-26T12:01:41.990Z,84.38
2018-09-26T12:02:42.081Z,90.00
2018-09-26T12:03:41.978Z,95.63
2018-09-26T12:04:41.970Z,101.25
2018-09-26T12:05:41.965Z,101.25
2018-09-26T12:06:41.959Z,101.25
2018-09-26T12:07:41.953Z,101.25
2018-09-26T12:08:41.946Z,101.25
2018-09-26T12:09:41.940Z,101.25
2018-09-26T12:10:41.933Z,101.25
2018-09-26T12:11:41.928Z,101.25
2018-09-26T12:12:41.922Z,101.25
2018-09-26T12:13:41.940Z,101.25
2018-09-26T12:14:41.909Z,101.25
2018-09-26T12:15:41.903Z,101.25
2018-09-26T12:16:41.896Z,101.25
2018-09-26T12:17:41.889Z,101.25
2018-09-26T12:18:41.885Z,101.25
2018-09-26T12:19:41.878Z,101.25
2018-09-26T12:20:41.871Z,101.25
2018-09-26T12:21:41.908Z,101.25
2018-09-26T12:22:41.952Z,101.25
2018-09-26T12:23:41.853Z,101.25
2018-09-26T12:24:41.848Z,101.25
2018-09-26T12:25:41.847Z,101.25
2018-09-26T12:26:41.840Z,101.25
2018-09-26T12:27:41.850Z,101.25
2018-09-26T12:28:41.823Z,106.88
2018-09-26T12:29:41.822Z,101.25
2018-09-26T12:30:41.811Z,101.25
2018-09-26T12:31:41.805Z,101.25
2018-09-26T12:32:41.799Z,101.25
2018-09-26T12:33:41.794Z,101.25
2018-09-26T12:34:41.790Z,101.25
2018-09-26T12:35:41.783Z,101.25
2018-09-26T12:36:41.781Z,101.25
2018-09-26T12:37:41.771Z,101.25
2018-09-26T12:38:41.764Z,106.88
2018-09-26T12:39:41.758Z,101.25
2018-09-26T12:40:41.752Z,101.25
2018-09-26T12:41:41.746Z,101.25
2018-09-26T12:42:41.787Z,101.25
2018-09-26T12:43:41.735Z,101.25
2018-09-26T12:44:41.733Z,101.25
2018-09-26T12:45:41.722Z,101.25
2018-09-26T12:46:41.718Z,101.25
2018-09-26T12:47:41.712Z,101.25
2018-09-26T12:48:41.711Z,101.25
2018-09-26T12:49:41.701Z,101.25
2018-09-26T12:50:41.695Z,101.25
2018-09-26T12:51:41.689Z,106.88
2018-09-26T12:52:41.683Z,101.25
2018-09-26T12:53:41.793Z,101.25
2018-09-26T12:54:41.670Z,106.88
2018-09-26T12:55:41.667Z,106.88
2018-09-26T12:56:41.661Z,106.88
2018-09-26T12:57:41.655Z,106.88
2018-09-26T12:58:41.650Z,101.25
2018-09-26T12:59:41.645Z,101.25
2018-09-26T13:00:41.675Z,101.25